Time;durP1;ratioP1;P1;durP2;ratioP2;P2;SDS_P1;SDS_P2;PMS_P1;PMS_P2;Temp;Humidity;BMP_temperature;BMP_pressure;BME280_temperature;BME280_humidity;BME280_pressure;Samples;Min_cycle;Max_cycle;Signal;HPM_P1;HPM_P2
2023/12/29 00:02:27;;;;;;;20.20;10.00;;;;;;;4.74;81.07;99872.79;135278;1253;107863;-80
2023/12/29 00:05:33;;;;;;;20.40;10.40;;;;;;;4.74;81.16;99871.89;135326;1251;107521;-80
2023/12/29 00:08:40;;;;;;;20.70;10.40;;;;;;;4.77;81.15;99875.73;135347;1251;107376;-80
2023/12/29 00:11:45;;;;;;;16.10;10.00;;;;;;;4.81;81.32;99876.40;135346;1252;108429;-80
2023/12/29 00:14:51;;;;;;;18.00;10.50;;;;;;;4.82;81.02;99875.15;135343;1251;108467;-80
2023/12/29 00:17:56;;;;;;;17.40;10.10;;;;;;;4.81;81.10;99867.48;135362;1251;107857;-80
2023/12/29 00:21:02;;;;;;;17.60;10.70;;;;;;;4.80;81.00;99859.45;135387;1251;108322;-80
2023/12/29 00:24:08;;;;;;;20.50;10.40;;;;;;;4.76;81.23;99857.27;135377;1254;108639;-80
2023/12/29 00:27:14;;;;;;;17.30;10.50;;;;;;;4.73;81.26;99853.15;135351;1251;108667;-80
2023/12/29 00:30:20;;;;;;;15.10;9.40;;;;;;;4.69;81.23;99854.15;135341;1251;108511;-80
2023/12/29 00:33:26;;;;;;;17.60;9.90;;;;;;;4.65;81.31;99856.25;135360;1251;106636;-79
2023/12/29 00:36:32;;;;;;;16.50;9.10;;;;;;;4.61;81.42;99856.19;135373;1251;107786;-79
2023/12/29 00:39:39;;;;;;;19.60;9.70;;;;;;;4.61;81.59;99852.37;135370;1251;106303;-80
2023/12/29 00:42:45;;;;;;;16.50;9.10;;;;;;;4.62;81.72;99852.21;135370;1251;107678;-79
2023/12/29 00:45:51;;;;;;;15.40;9.70;;;;;;;4.64;81.51;99849.65;135368;1251;108761;-80
2023/12/29 00:48:56;;;;;;;15.80;10.00;;;;;;;4.64;81.71;99845.20;135366;1251;107595;-80
2023/12/29 00:52:02;;;;;;;15.20;9.50;;;;;;;4.62;81.65;99840.62;135357;1251;107835;-80
2023/12/29 00:55:09;;;;;;;14.50;9.40;;;;;;;4.59;81.69;99839.61;135336;1251;107660;-80
2023/12/29 00:58:15;;;;;;;15.90;9.40;;;;;;;4.57;81.66;99838.92;135354;1251;107646;-80
2023/12/29 01:01:21;;;;;;;17.10;9.80;;;;;;;4.54;81.76;99833.20;135354;1252;106184;-80
2023/12/29 01:04:26;;;;;;;14.50;9.20;;;;;;;4.49;81.86;99834.96;135285;1251;107611;-80
2023/12/29 01:07:32;;;;;;;16.30;9.50;;;;;;;4.46;81.81;99832.05;135311;1251;108768;-80
2023/12/29 01:10:38;;;;;;;13.50;7.90;;;;;;;4.45;81.93;99832.84;135321;1251;106241;-80
2023/12/29 01:13:43;;;;;;;15.30;9.30;;;;;;;4.45;81.90;99830.36;135326;1251;108627;-80
2023/12/29 01:16:49;;;;;;;15.00;9.40;;;;;;;4.47;82.06;99830.02;135330;1251;107266;-80
2023/12/29 01:19:54;;;;;;;16.40;9.30;;;;;;;4.49;81.95;99825.48;135357;1251;107781;-80
2023/12/29 01:23:01;;;;;;;16.90;9.50;;;;;;;4.48;81.78;99821.33;135422;1251;108666;-80
2023/12/29 01:26:06;;;;;;;15.60;9.70;;;;;;;4.45;81.85;99818.95;135359;1251;108647;-80
2023/12/29 01:29:12;;;;;;;15.50;9.60;;;;;;;4.41;81.80;99821.23;135317;1251;108693;-80
2023/12/29 01:32:18;;;;;;;16.90;10.60;;;;;;;4.36;81.84;99818.23;135320;1256;107597;-80
2023/12/29 01:35:23;;;;;;;15.60;9.00;;;;;;;4.29;81.85;99810.02;135319;1251;106632;-80
2023/12/29 01:38:29;;;;;;;14.50;9.20;;;;;;;4.23;81.98;99803.12;135352;1251;108319;-80
2023/12/29 01:41:35;;;;;;;15.10;9.10;;;;;;;4.21;82.00;99798.02;135319;1256;108705;-80
2023/12/29 01:44:40;;;;;;;16.20;9.40;;;;;;;4.21;82.21;99789.33;135277;1251;107099;-80
2023/12/29 01:47:47;;;;;;;15.60;9.30;;;;;;;4.23;82.13;99787.94;135364;1251;108512;-80
2023/12/29 01:50:54;;;;;;;15.50;10.10;;;;;;;4.23;81.99;99784.22;135355;1251;106271;-80
2023/12/29 01:54:01;;;;;;;17.30;10.20;;;;;;;4.22;82.21;99776.12;135299;1251;108696;-79
2023/12/29 01:57:08;;;;;;;17.50;10.30;;;;;;;4.17;82.07;99766.96;135339;1251;106530;-80
2023/12/29 02:00:16;;;;;;;19.30;10.40;;;;;;;4.12;82.25;99766.44;135352;1251;108752;-80
2023/12/29 02:03:22;;;;;;;16.00;10.30;;;;;;;4.08;82.11;99771.15;135297;1251;107506;-81
2023/12/29 02:06:28;;;;;;;16.00;9.30;;;;;;;4.04;82.16;99768.20;135251;1257;106837;-80
2023/12/29 02:09:35;;;;;;;16.40;9.20;;;;;;;3.98;82.27;99759.52;135299;1251;107675;-80
2023/12/29 02:12:40;;;;;;;14.40;8.70;;;;;;;3.95;82.29;99760.64;135342;1251;108139;-80
2023/12/29 02:15:47;;;;;;;15.40;9.60;;;;;;;3.97;82.35;99754.71;135352;1251;108052;-80
2023/12/29 02:18:54;;;;;;;16.60;9.70;;;;;;;3.97;82.37;99743.98;135321;1251;109120;-80
2023/12/29 02:22:00;;;;;;;16.80;10.30;;;;;;;3.97;82.26;99745.31;135363;1251;106013;-80
2023/12/29 02:25:06;;;;;;;16.30;10.50;;;;;;;3.96;82.33;99745.20;135265;1251;108362;-79
2023/12/29 02:28:19;;;;;;;17.70;10.20;;;;;;;3.95;82.47;99748.86;135331;1251;108497;-80
2023/12/29 02:31:28;;;;;;;17.20;10.40;;;;;;;3.91;82.48;99743.85;135337;1254;107343;-79
2023/12/29 02:34:35;;;;;;;18.90;10.30;;;;;;;3.88;82.61;99744.98;135329;1253;108525;-80
2023/12/29 02:37:41;;;;;;;17.10;10.40;;;;;;;3.84;82.63;99744.61;135264;1253;107101;-80
2023/12/29 02:40:48;;;;;;;18.30;10.40;;;;;;;3.81;82.89;99735.83;135324;1253;107941;-80
2023/12/29 02:43:54;;;;;;;19.00;10.20;;;;;;;3.81;82.76;99739.89;135326;1254;107782;-80
2023/12/29 02:47:00;;;;;;;18.00;10.40;;;;;;;3.85;82.88;99734.14;135287;1253;107138;-80
2023/12/29 02:50:06;;;;;;;16.50;10.50;;;;;;;3.88;82.70;99734.89;135281;1252;106467;-80
2023/12/29 02:53:12;;;;;;;18.00;11.30;;;;;;;3.90;82.76;99728.61;135317;1252;108665;-81
2023/12/29 02:56:18;;;;;;;18.50;11.40;;;;;;;3.91;82.82;99723.29;135289;1254;107787;-79
2023/12/29 02:59:23;;;;;;;20.20;11.40;;;;;;;3.89;82.94;99723.80;135284;1254;107794;-80
2023/12/29 03:02:29;;;;;;;17.60;10.30;;;;;;;3.86;82.99;99723.69;135281;1251;107854;-80
2023/12/29 03:05:35;;;;;;;18.00;11.00;;;;;;;3.84;83.10;99727.86;135311;1251;107751;-80
2023/12/29 03:08:41;;;;;;;20.00;10.90;;;;;;;3.83;83.44;99723.55;135310;1251;108555;-80
2023/12/29 03:11:46;;;;;;;18.20;9.90;;;;;;;3.84;83.40;99728.02;135349;1251;108745;-80
2023/12/29 03:14:52;;;;;;;20.00;11.40;;;;;;;3.89;83.37;99727.16;135335;1251;108642;-80
2023/12/29 03:17:58;;;;;;;18.30;11.00;;;;;;;3.94;83.43;99729.90;135305;1251;108422;-80
2023/12/29 03:21:03;;;;;;;18.50;11.10;;;;;;;3.99;83.49;99727.61;135315;1251;108633;-80
2023/12/29 03:24:09;;;;;;;17.50;11.20;;;;;;;3.99;83.29;99728.10;135332;1251;108731;-80
2023/12/29 03:27:15;;;;;;;24.00;15.40;;;;;;;3.97;83.35;99718.73;135302;1251;106296;-79
2023/12/29 03:30:21;;;;;;;26.60;15.30;;;;;;;3.94;83.37;99720.38;135334;1251;107180;-80
2023/12/29 03:33:26;;;;;;;20.90;12.50;;;;;;;3.91;83.51;99722.36;135266;1251;108760;-80
2023/12/29 03:36:32;;;;;;;22.60;13.00;;;;;;;3.89;83.82;99726.77;135340;1251;108450;-80
2023/12/29 03:39:38;;;;;;;29.20;16.60;;;;;;;3.88;83.96;99722.28;135396;1251;107667;-80
2023/12/29 03:42:43;;;;;;;20.40;11.40;;;;;;;3.92;83.97;99716.48;135346;1251;108808;-80
2023/12/29 03:45:49;;;;;;;23.60;13.80;;;;;;;3.94;83.69;99714.21;135350;1251;105738;-80
2023/12/29 03:48:55;;;;;;;19.50;11.90;;;;;;;3.98;83.71;99710.05;135358;1251;107168;-80
2023/12/29 03:52:00;;;;;;;32.60;18.90;;;;;;;4.00;83.72;99709.92;135382;1251;108693;-80
2023/12/29 03:55:08;;;;;;;23.60;12.90;;;;;;;4.00;83.64;99711.30;135347;1251;108642;-80
2023/12/29 03:58:14;;;;;;;21.00;12.20;;;;;;;3.98;83.80;99703.87;135385;1251;107673;-80
2023/12/29 04:01:20;;;;;;;21.40;13.50;;;;;;;3.98;84.00;99698.33;135317;1251;108652;-80
2023/12/29 04:04:26;;;;;;;23.30;12.20;;;;;;;4.01;84.01;99699.09;135266;1254;107394;-80
2023/12/29 04:07:31;;;;;;;26.40;13.20;;;;;;;4.09;84.06;99701.26;135300;1252;108818;-80
2023/12/29 04:10:37;;;;;;;18.90;11.20;;;;;;;4.19;84.19;99697.25;135268;1252;107888;-80
2023/12/29 04:13:43;;;;;;;18.80;11.80;;;;;;;4.28;84.24;99694.98;135304;1253;107909;-80
2023/12/29 04:16:48;;;;;;;21.60;12.00;;;;;;;4.34;83.97;99692.88;135318;1252;107578;-79
2023/12/29 04:19:54;;;;;;;23.10;14.10;;;;;;;4.37;83.93;99691.53;135308;1253;106804;-80
2023/12/29 04:23:00;;;;;;;21.40;14.00;;;;;;;4.39;83.98;99688.58;135279;1252;107637;-80
2023/12/29 04:26:05;;;;;;;21.50;13.20;;;;;;;4.41;84.00;99688.99;135272;1252;106909;-83
2023/12/29 04:29:11;;;;;;;20.30;12.60;;;;;;;4.41;84.09;99687.02;135261;1252;107576;-80
2023/12/29 04:32:17;;;;;;;22.30;13.50;;;;;;;4.43;84.16;99689.50;135250;1251;108168;-82
2023/12/29 04:35:23;;;;;;;22.70;15.90;;;;;;;4.47;84.25;99682.81;135349;1251;108458;-80
2023/12/29 04:38:29;;;;;;;20.10;12.40;;;;;;;4.54;84.28;99687.46;135329;1251;107607;-80
2023/12/29 04:41:34;;;;;;;36.10;22.40;;;;;;;4.62;84.23;99685.24;135372;1251;108912;-80
2023/12/29 04:44:40;;;;;;;31.70;19.40;;;;;;;4.66;84.24;99687.88;135306;1251;107816;-80
2023/12/29 04:47:45;;;;;;;32.80;20.60;;;;;;;4.65;84.13;99683.70;135371;1251;106776;-80
2023/12/29 04:50:51;;;;;;;24.70;15.00;;;;;;;4.63;84.13;99684.42;135375;1251;107640;-80
2023/12/29 04:53:56;;;;;;;24.90;13.70;;;;;;;4.61;84.22;99673.67;135359;1251;107734;-79
2023/12/29 04:57:02;;;;;;;26.70;17.20;;;;;;;4.56;84.14;99668.98;135334;1251;106588;-80
2023/12/29 05:00:09;;;;;;;21.60;13.80;;;;;;;4.51;84.44;99664.48;135337;1251;106451;-79
2023/12/29 05:03:15;;;;;;;20.70;12.20;;;;;;;4.52;84.46;99663.73;135341;1251;106393;-80
2023/12/29 05:06:21;;;;;;;27.90;17.30;;;;;;;4.54;84.68;99665.63;135323;1251;108751;-80
2023/12/29 05:09:26;;;;;;;22.00;13.50;;;;;;;4.57;84.70;99664.71;135356;1251;108481;-80
2023/12/29 05:12:32;;;;;;;21.80;13.20;;;;;;;4.58;84.65;99662.16;135357;1251;108403;-80
2023/12/29 05:15:49;;;;;;;224.30;95.20;;;;;;;4.57;84.55;99656.76;135386;1251;107704;-81
2023/12/29 05:18:55;;;;;;;109.40;43.10;;;;;;;4.54;84.70;99659.49;135353;1251;108693;-80
2023/12/29 05:22:00;;;;;;;218.10;89.20;;;;;;;4.49;84.84;99657.26;135294;1251;108437;-80
2023/12/29 05:25:07;;;;;;;158.60;66.60;;;;;;;4.44;84.81;99662.95;135335;1251;108596;-80
2023/12/29 05:28:13;;;;;;;54.40;26.70;;;;;;;4.40;84.88;99661.04;135353;1251;106647;-79
2023/12/29 05:31:19;;;;;;;38.00;19.20;;;;;;;4.40;84.89;99655.22;135323;1252;107764;-80
2023/12/29 05:34:24;;;;;;;115.10;54.50;;;;;;;4.44;84.89;99655.58;135099;1252;108478;-80
2023/12/29 05:37:31;;;;;;;84.40;43.30;;;;;;;4.49;84.88;99659.69;135270;1252;107698;-79
2023/12/29 05:40:37;;;;;;;39.40;20.40;;;;;;;4.55;84.94;99653.05;135223;1252;107357;-80
2023/12/29 05:43:42;;;;;;;27.80;15.60;;;;;;;4.56;84.89;99646.85;135272;1252;108695;-80
2023/12/29 05:46:50;;;;;;;23.50;14.10;;;;;;;4.53;84.86;99656.77;135276;1252;106679;-80
2023/12/29 05:49:56;;;;;;;23.50;14.80;;;;;;;4.49;84.93;99651.42;135218;1253;107708;-79
2023/12/29 05:53:02;;;;;;;29.40;18.90;;;;;;;4.45;84.92;99646.50;135246;1252;107629;-79
2023/12/29 05:56:08;;;;;;;18.10;11.00;;;;;;;4.42;84.89;99646.42;135291;1252;106980;-80
2023/12/29 05:59:14;;;;;;;18.90;10.70;;;;;;;4.41;85.28;99646.17;135246;1252;106619;-80
2023/12/29 06:02:20;;;;;;;16.40;10.90;;;;;;;4.43;85.36;99632.59;135296;1251;108782;-79
2023/12/29 06:05:25;;;;;;;20.80;12.30;;;;;;;4.46;85.23;99636.89;135372;1251;107564;-80
2023/12/29 06:08:31;;;;;;;18.60;12.20;;;;;;;4.48;85.30;99637.80;135339;1251;106351;-80
2023/12/29 06:11:37;;;;;;;20.60;12.90;;;;;;;4.49;85.19;99637.73;135357;1251;108705;-80
2023/12/29 06:14:43;;;;;;;16.90;11.50;;;;;;;4.47;85.17;99638.73;135379;1251;106385;-80
2023/12/29 06:17:49;;;;;;;29.10;18.50;;;;;;;4.44;85.28;99641.98;135342;1251;107597;-80
2023/12/29 06:20:55;;;;;;;47.40;23.20;;;;;;;4.40;85.32;99642.52;135321;1251;106967;-80
2023/12/29 06:24:00;;;;;;;46.60;25.20;;;;;;;4.39;85.56;99640.00;135367;1251;108715;-80
2023/12/29 06:27:07;;;;;;;32.20;19.70;;;;;;;4.39;85.72;99635.77;135354;1251;107033;-80
2023/12/29 06:30:13;;;;;;;41.00;23.40;;;;;;;4.43;85.72;99639.31;135308;1251;106136;-80
2023/12/29 06:33:20;;;;;;;19.40;11.70;;;;;;;4.46;85.86;99640.59;135338;1251;108975;-79
2023/12/29 06:36:26;;;;;;;18.50;11.60;;;;;;;4.55;85.93;99636.52;135327;1251;106383;-80
2023/12/29 06:39:32;;;;;;;15.90;9.90;;;;;;;4.64;85.95;99634.33;135351;1251;106651;-79
2023/12/29 06:42:38;;;;;;;14.30;9.50;;;;;;;4.72;85.84;99635.95;135364;1251;108624;-80
2023/12/29 06:45:43;;;;;;;21.70;9.40;;;;;;;4.78;85.91;99638.23;135335;1251;107584;-79
2023/12/29 06:48:49;;;;;;;15.90;9.40;;;;;;;4.86;86.12;99639.73;135238;1251;107213;-80
2023/12/29 06:51:55;;;;;;;15.90;9.10;;;;;;;4.94;86.11;99630.86;135253;1252;108671;-80
2023/12/29 06:55:01;;;;;;;14.60;8.50;;;;;;;5.05;86.08;99621.17;135262;1252;107475;-80
2023/12/29 06:58:08;;;;;;;13.50;8.30;;;;;;;5.15;86.01;99627.19;135232;1252;108403;-80
2023/12/29 07:01:15;;;;;;;15.10;9.10;;;;;;;5.24;85.88;99630.62;135225;1252;107550;-80
2023/12/29 07:04:21;;;;;;;14.40;8.70;;;;;;;5.31;86.00;99624.70;135267;1252;107664;-81
2023/12/29 07:07:27;;;;;;;14.70;8.30;;;;;;;5.35;85.80;99614.44;135262;1252;108717;-79
2023/12/29 07:10:33;;;;;;;11.20;7.30;;;;;;;5.37;85.75;99608.09;135217;1252;109142;-80
2023/12/29 07:13:39;;;;;;;10.80;6.60;;;;;;;5.41;85.92;99603.38;135218;1252;108562;-80
2023/12/29 07:16:46;;;;;;;12.70;7.40;;;;;;;5.47;85.85;99597.86;135231;1252;108758;-80
2023/12/29 07:19:52;;;;;;;12.50;7.50;;;;;;;5.56;85.66;99604.89;135273;1251;106053;-79
2023/12/29 07:22:58;;;;;;;11.40;7.50;;;;;;;5.64;85.74;99597.98;135353;1251;106501;-79
2023/12/29 07:26:04;;;;;;;11.50;7.10;;;;;;;5.68;85.76;99598.95;135326;1251;106216;-80
2023/12/29 07:29:10;;;;;;;12.90;8.20;;;;;;;5.72;85.56;99593.52;135348;1251;106650;-80
2023/12/29 07:32:16;;;;;;;12.20;7.70;;;;;;;5.73;85.67;99584.09;135395;1251;106354;-80
2023/12/29 07:35:22;;;;;;;12.40;8.20;;;;;;;5.74;85.44;99581.40;135378;1251;107552;-80
2023/12/29 07:38:27;;;;;;;12.10;7.60;;;;;;;5.71;85.53;99581.30;135356;1251;108630;-80
2023/12/29 07:41:33;;;;;;;101.50;40.90;;;;;;;5.71;85.60;99584.64;135379;1251;107154;-80
2023/12/29 07:44:39;;;;;;;155.10;58.70;;;;;;;5.74;85.57;99573.44;135401;1251;108722;-80
2023/12/29 07:47:45;;;;;;;149.30;55.50;;;;;;;5.75;85.38;99574.39;135365;1251;108442;-80
2023/12/29 07:50:51;;;;;;;405.10;147.10;;;;;;;5.74;85.32;99584.89;135359;1251;108779;-80
2023/12/29 07:53:57;;;;;;;112.00;39.70;;;;;;;5.71;85.41;99589.37;135255;1252;106653;-79
2023/12/29 07:57:02;;;;;;;610.00;248.00;;;;;;;5.69;85.11;99589.04;135253;1252;108774;-79
2023/12/29 08:00:10;;;;;;;276.40;82.20;;;;;;;5.65;85.09;99596.30;135250;1252;108749;-80
2023/12/29 08:03:19;;;;;;;110.80;37.50;;;;;;;5.59;85.14;99597.92;135333;1251;107980;-80
2023/12/29 08:06:24;;;;;;;215.70;67.00;;;;;;;5.53;85.39;99598.44;135291;1251;108630;-86
2023/12/29 08:09:30;;;;;;;185.20;56.80;;;;;;;5.47;85.32;99593.41;135320;1251;107717;-82
2023/12/29 08:12:36;;;;;;;359.90;105.60;;;;;;;5.46;85.40;99588.79;135349;1251;107373;-82
2023/12/29 08:15:42;;;;;;;263.10;74.10;;;;;;;5.49;85.46;99581.13;135240;1252;107764;-82
2023/12/29 08:18:50;;;;;;;184.30;56.50;;;;;;;5.53;85.51;99577.63;135290;1252;106906;-82
2023/12/29 08:21:56;;;;;;;126.60;37.60;;;;;;;5.54;85.39;99579.83;135255;1252;105876;-81
2023/12/29 08:25:02;;;;;;;705.60;247.00;;;;;;;5.53;85.28;99583.42;135236;1252;107505;-82
2023/12/29 08:28:08;;;;;;;102.40;32.10;;;;;;;5.52;85.32;99587.55;135253;1252;106896;-82
2023/12/29 08:31:13;;;;;;;553.40;202.40;;;;;;;5.51;85.55;99584.41;135205;1251;107112;-81
2023/12/29 08:34:19;;;;;;;211.40;66.10;;;;;;;5.51;85.50;99581.61;135358;1251;106393;-80
2023/12/29 08:37:25;;;;;;;61.90;23.80;;;;;;;5.52;85.58;99575.54;135344;1251;107441;-80
2023/12/29 08:40:30;;;;;;;54.50;21.00;;;;;;;5.58;85.97;99568.92;135310;1250;108644;-80
2023/12/29 08:43:36;;;;;;;171.20;56.70;;;;;;;5.64;85.82;99573.25;135493;1251;106491;-82
2023/12/29 08:46:42;;;;;;;98.10;32.80;;;;;;;5.71;85.78;99577.76;135519;1250;108160;-81
2023/12/29 08:49:48;;;;;;;94.70;34.30;;;;;;;5.76;85.83;99582.41;135416;1250;108707;-81
2023/12/29 08:52:55;;;;;;;145.80;54.70;;;;;;;5.80;85.45;99585.03;135451;1250;107528;-81
2023/12/29 08:56:00;;;;;;;220.80;82.20;;;;;;;5.83;85.61;99587.29;135478;1250;108446;-81
2023/12/29 08:59:08;;;;;;;251.80;99.20;;;;;;;5.84;85.72;99584.17;135469;1250;106513;-84
2023/12/29 09:02:14;;;;;;;101.50;43.90;;;;;;;5.86;85.78;99580.30;135455;1251;107734;-81
2023/12/29 09:05:19;;;;;;;98.60;39.40;;;;;;;5.93;85.83;99574.75;135336;1251;107563;-82
2023/12/29 09:08:25;;;;;;;101.30;44.80;;;;;;;6.01;85.90;99573.13;135338;1251;107657;-80
2023/12/29 09:11:31;;;;;;;64.30;28.30;;;;;;;6.10;85.94;99568.97;135341;1251;107537;-82
2023/12/29 09:14:36;;;;;;;38.20;20.70;;;;;;;6.20;85.75;99570.71;135326;1251;107640;-81
2023/12/29 09:17:42;;;;;;;21.70;12.80;;;;;;;6.28;85.88;99566.96;135370;1250;108309;-81
2023/12/29 09:20:48;;;;;;;19.40;12.10;;;;;;;6.33;85.63;99566.63;135426;1250;107715;-82
2023/12/29 09:23:54;;;;;;;16.30;11.00;;;;;;;6.37;85.70;99563.85;135390;1251;107596;-82
2023/12/29 09:26:59;;;;;;;14.10;8.80;;;;;;;6.39;85.88;99560.94;135093;1251;108670;-82
2023/12/29 09:30:06;;;;;;;17.60;11.30;;;;;;;6.45;85.76;99566.59;135249;1252;106559;-82
2023/12/29 09:33:12;;;;;;;13.00;8.60;;;;;;;6.54;86.12;99565.60;135303;1251;108830;-83
2023/12/29 09:36:18;;;;;;;12.70;8.80;;;;;;;6.62;85.61;99566.01;135341;1251;107067;-81
2023/12/29 09:39:24;;;;;;;14.10;9.30;;;;;;;6.70;85.88;99566.20;135306;1250;106873;-80
2023/12/29 09:42:32;;;;;;;15.30;9.90;;;;;;;6.75;85.66;99559.88;135313;1250;108519;-79
2023/12/29 09:45:41;;;;;;;15.80;9.90;;;;;;;6.80;85.79;99557.83;135432;1250;106737;-80
2023/12/29 09:48:48;;;;;;;15.50;9.70;;;;;;;6.85;85.71;99562.30;135361;1251;107936;-80
2023/12/29 09:51:54;;;;;;;14.20;8.70;;;;;;;6.87;85.71;99558.35;135269;1251;108159;-81
2023/12/29 09:55:00;;;;;;;15.40;9.30;;;;;;;6.93;85.61;99555.14;135364;1251;107804;-81
2023/12/29 09:58:08;;;;;;;14.20;9.40;;;;;;;7.06;85.75;99553.17;135260;1251;107478;-81
2023/12/29 10:01:14;;;;;;;13.10;9.00;;;;;;;7.21;85.83;99546.85;135303;1251;108550;-82
2023/12/29 10:04:20;;;;;;;14.10;9.70;;;;;;;7.35;85.53;99555.59;135335;1252;106548;-81
2023/12/29 10:07:28;;;;;;;49.70;25.40;;;;;;;7.47;85.69;99554.42;135298;1252;107572;-80
2023/12/29 10:10:36;;;;;;;31.20;15.10;;;;;;;7.57;85.36;99559.80;135322;1250;108829;-81
2023/12/29 10:13:45;;;;;;;30.20;14.30;;;;;;;7.64;85.36;99550.91;135377;1251;106834;-81
2023/12/29 10:17:07;;;;;;;79.90;33.20;;;;;;;7.70;85.51;99545.91;135375;1251;106088;-81
2023/12/29 10:20:24;;;;;;;304.80;97.30;;;;;;;7.78;85.43;99552.95;135405;1251;108770;-81
2023/12/29 10:23:37;;;;;;;104.40;35.60;;;;;;;7.85;85.53;99544.27;135361;1250;107720;-82
2023/12/29 10:26:43;;;;;;;281.80;93.90;;;;;;;7.96;85.39;99545.11;135454;1250;107444;-82
2023/12/29 10:29:49;;;;;;;144.20;50.30;;;;;;;8.09;85.44;99543.48;135459;1250;108338;-82
2023/12/29 10:32:55;;;;;;;251.80;90.50;;;;;;;8.18;85.15;99547.27;135265;1252;107374;-82
2023/12/29 10:36:03;;;;;;;187.10;68.30;;;;;;;8.26;85.20;99542.80;135153;1252;107119;-82
2023/12/29 10:39:09;;;;;;;130.20;51.40;;;;;;;8.33;85.12;99544.25;135271;1252;109366;-82
2023/12/29 10:42:16;;;;;;;71.20;29.00;;;;;;;8.39;85.03;99544.48;135307;1251;107631;-80
2023/12/29 10:45:22;;;;;;;53.00;20.30;;;;;;;8.47;84.88;99541.96;135400;1250;106522;-85
2023/12/29 10:48:29;;;;;;;260.10;94.10;;;;;;;8.56;84.82;99541.90;135487;1250;106398;-84
2023/12/29 10:51:35;;;;;;;140.80;57.30;;;;;;;8.63;84.61;99543.33;135478;1251;107746;-81
2023/12/29 10:54:41;;;;;;;145.80;61.10;;;;;;;8.70;84.37;99539.59;135351;1251;108742;-80
2023/12/29 10:57:46;;;;;;;48.00;24.40;;;;;;;8.81;84.46;99533.52;135231;1251;108668;-80
2023/12/29 11:00:52;;;;;;;207.70;115.20;;;;;;;8.96;84.20;99529.64;135153;1252;108535;-81
2023/12/29 11:04:02;;;;;;;113.80;68.40;;;;;;;9.10;84.01;99522.98;135263;1251;107054;-80
2023/12/29 11:07:12;;;;;;;74.40;44.70;;;;;;;9.23;83.72;99523.84;135280;1251;107872;-81
2023/12/29 11:10:18;;;;;;;27.10;15.90;;;;;;;9.30;83.62;99521.46;135282;1252;106264;-81
2023/12/29 11:13:25;;;;;;;15.10;9.80;;;;;;;9.31;83.45;99519.77;135215;1252;106664;-81
2023/12/29 11:16:32;;;;;;;10.10;6.90;;;;;;;9.28;82.78;99513.88;135312;1251;106307;-81
2023/12/29 11:19:38;;;;;;;9.10;6.40;;;;;;;9.23;82.95;99513.10;135276;1252;107388;-81
2023/12/29 11:22:46;;;;;;;8.10;5.60;;;;;;;9.22;82.76;99505.98;135275;1252;107740;-80
2023/12/29 11:25:52;;;;;;;7.00;4.50;;;;;;;9.25;82.93;99502.06;135283;1252;107799;-81
2023/12/29 11:28:58;;;;;;;6.30;4.00;;;;;;;9.30;82.68;99497.87;135277;1251;106528;-81
2023/12/29 11:32:07;;;;;;;7.70;4.20;;;;;;;9.32;81.88;99490.55;135236;1251;106957;-81
2023/12/29 11:35:22;;;;;;;6.00;3.10;;;;;;;9.40;82.02;99483.79;135315;1251;106884;-81
2023/12/29 11:38:35;;;;;;;5.40;3.50;;;;;;;9.55;81.51;99478.71;135328;1251;107385;-80
2023/12/29 11:41:47;;;;;;;8.70;4.60;;;;;;;9.69;81.31;99475.18;135240;1252;107249;-81
2023/12/29 11:44:53;;;;;;;6.80;3.80;;;;;;;9.82;80.40;99473.74;135323;1252;107796;-81
2023/12/29 11:48:02;;;;;;;5.00;3.40;;;;;;;9.92;80.05;99467.00;135272;1252;107592;-81
2023/12/29 11:51:29;;;;;;;4.90;3.20;;;;;;;9.96;80.38;99459.84;135321;1251;108727;-81
2023/12/29 11:54:35;;;;;;;7.00;3.50;;;;;;;9.98;79.98;99464.21;135308;1251;107228;-81
2023/12/29 11:57:41;;;;;;;7.00;4.10;;;;;;;10.00;79.86;99455.67;135330;1251;108751;-81
2023/12/29 12:00:48;;;;;;;6.30;3.30;;;;;;;10.00;79.41;99459.04;135280;1251;108705;-81
2023/12/29 12:03:53;;;;;;;6.00;3.70;;;;;;;9.99;79.65;99455.74;135329;1251;108897;-81
2023/12/29 12:06:59;;;;;;;10.60;5.20;;;;;;;9.96;78.67;99462.27;135298;1251;108593;-81
2023/12/29 12:10:31;;;;;;;9.10;4.70;;;;;;;9.95;79.12;99463.30;135384;1251;107847;-81
2023/12/29 12:13:46;;;;;;;7.10;4.50;;;;;;;9.91;78.39;99461.95;135329;1251;108400;-81
2023/12/29 12:16:53;;;;;;;9.20;5.20;;;;;;;9.89;79.18;99453.16;135332;1251;106793;-80
2023/12/29 12:20:02;;;;;;;6.60;4.60;;;;;;;9.90;78.67;99438.66;135285;1251;107484;-80
2023/12/29 12:23:18;;;;;;;6.30;4.10;;;;;;;9.97;78.62;99438.42;135357;1251;105822;-81
2023/12/29 12:26:26;;;;;;;6.00;4.20;;;;;;;10.06;78.73;99443.27;135357;1251;108538;-81
2023/12/29 12:29:32;;;;;;;7.40;4.50;;;;;;;10.13;78.01;99447.29;135303;1251;107317;-81
2023/12/29 12:32:38;;;;;;;7.10;4.90;;;;;;;10.19;78.63;99455.66;135339;1251;106402;-81
2023/12/29 12:35:46;;;;;;;6.90;4.10;;;;;;;10.25;78.74;99456.98;135289;1251;108351;-81
2023/12/29 12:38:55;;;;;;;8.60;4.20;;;;;;;10.25;77.39;99451.98;135226;1252;107556;-81
2023/12/29 12:42:02;;;;;;;43.10;19.20;;;;;;;10.29;78.19;99453.77;135323;1253;107941;-81
2023/12/29 12:45:12;;;;;;;29.00;13.00;;;;;;;10.33;77.66;99453.99;135298;1251;108647;-81
2023/12/29 12:48:24;;;;;;;138.10;55.10;;;;;;;10.39;77.73;99445.02;135309;1252;107017;-81
2023/12/29 12:51:29;;;;;;;41.80;18.60;;;;;;;10.46;77.36;99445.10;135286;1252;107047;-82
2023/12/29 12:54:35;;;;;;;56.00;23.90;;;;;;;10.49;76.92;99445.64;135303;1253;108762;-81
2023/12/29 12:57:42;;;;;;;97.00;39.20;;;;;;;10.46;76.65;99448.09;135318;1252;107704;-81
2023/12/29 13:00:48;;;;;;;87.00;38.40;;;;;;;10.45;76.54;99458.56;135308;1253;108512;-80
2023/12/29 13:03:54;;;;;;;160.30;62.90;;;;;;;10.41;76.69;99450.11;135306;1252;108016;-82
2023/12/29 13:06:59;;;;;;;64.40;26.80;;;;;;;10.40;77.03;99447.87;135257;1253;106747;-81
2023/12/29 13:10:06;;;;;;;126.40;49.20;;;;;;;10.38;76.71;99447.58;135322;1253;108704;-81
2023/12/29 13:13:12;;;;;;;150.50;56.60;;;;;;;10.36;76.56;99446.55;135282;1253;107826;-80
2023/12/29 13:16:18;;;;;;;64.60;25.20;;;;;;;10.32;76.58;99443.94;135364;1251;107250;-81
2023/12/29 13:19:27;;;;;;;110.00;44.30;;;;;;;10.27;76.14;99441.11;135294;1251;108670;-81
2023/12/29 13:22:35;;;;;;;147.00;58.60;;;;;;;10.20;75.74;99435.80;135236;1253;107377;-82
2023/12/29 13:25:43;;;;;;;150.50;51.00;;;;;;;10.15;75.95;99437.15;135334;1251;108808;-81
2023/12/29 13:28:49;;;;;;;166.30;55.30;;;;;;;10.10;75.87;99442.08;135325;1251;107683;-81
2023/12/29 13:31:59;;;;;;;200.00;70.50;;;;;;;10.09;76.12;99454.70;135294;1253;107273;-81
2023/12/29 13:35:09;;;;;;;70.00;28.30;;;;;;;10.07;75.73;99458.66;135299;1252;108334;-81
2023/12/29 13:38:22;;;;;;;172.60;59.80;;;;;;;10.01;75.71;99459.10;135272;1253;108595;-82
2023/12/29 13:41:30;;;;;;;336.40;119.90;;;;;;;9.94;75.57;99457.94;135268;1252;108400;-80
2023/12/29 13:44:38;;;;;;;657.30;264.90;;;;;;;9.85;74.94;99465.11;135258;1252;107271;-81
2023/12/29 13:47:45;;;;;;;502.40;202.30;;;;;;;9.78;76.07;99460.32;135292;1253;106906;-81
2023/12/29 13:50:51;;;;;;;136.80;63.70;;;;;;;9.74;75.96;99464.32;135280;1252;108430;-81
2023/12/29 13:54:03;;;;;;;39.10;19.50;;;;;;;9.71;76.03;99467.55;135285;1252;107541;-80
2023/12/29 13:57:08;;;;;;;367.50;223.70;;;;;;;9.65;75.72;99470.35;135292;1253;106620;-80
2023/12/29 14:00:22;;;;;;;197.00;92.40;;;;;;;9.57;75.49;99475.41;135230;1253;107725;-82
2023/12/29 14:03:32;;;;;;;124.30;50.70;;;;;;;9.55;75.83;99479.17;135298;1256;106972;-81
2023/12/29 14:06:43;;;;;;;333.40;138.00;;;;;;;9.57;75.76;99474.41;135290;1251;107644;-81
2023/12/29 14:09:54;;;;;;;325.20;129.70;;;;;;;9.60;75.56;99478.44;135288;1253;107680;-81